Cambridge, Maryland
Current Conditions -  °F | °C
As of 2:04 PM on Monday 20 Oct 2014 (Local Time) from KCGE Reporting Station
Clear Clear  
Wind Chill: 64°   Ceiling: Unl
Heat Index: 64°   Visibility: 10mi
Dew Point: 37°   Wind: 13mph
Humidity: 37%   Direction: 180°S
Pressure: 30.02"   Gusts: 21mph
Location:  38.56°N, 76.08°W
Report Text: KCGE 201804Z AUTO 18011G18KT 10SM CLR 18/03 A3002 RMK AO1
Loading
Personal Weather Stations






























Interactive Weather Map
Tropical Storm Tracking
New forecast layout! Learn more

10-Day Weather Forecast

Advertisements
Track Severe Weather on mobile